Flight Track Log - Related Links

Times and Time Zones

All times are in EST time to prevent confusion due to time zone crossing. See the UAL1501 flight status page for this flight to view local times or setup timezone preferences in your user account.

Time Position Orientation Groundspeed Altitude Reporting Facility
EST Latitude Longitude Course Direction KTS MPH feet Rate Location/Type
08:17AM 14.9162 -90.5494 356° North  Level FlightAware Approximate
08:18AM 15.0272 -90.5567 356° North  Level FlightAware Approximate
08:19AM 15.1381 -90.5640 356° North  Level FlightAware Approximate
08:20AM 15.2491 -90.5713 356° North  Level FlightAware Approximate
08:21AM 15.3601 -90.5787 356° North  Level FlightAware Approximate
08:22AM 15.4710 -90.5860 356° North  Level FlightAware Approximate
08:23AM 15.5820 -90.5933 356° North  Level FlightAware Approximate
08:24AM 15.6930 -90.6007 356° North  Level FlightAware Approximate
08:25AM 15.8040 -90.6081 356° North  Level FlightAware Approximate
08:26AM 15.9149 -90.6154 356° North  Level FlightAware Approximate
08:27AM 16.0259 -90.6228 356° North  Level FlightAware Approximate
08:28AM 16.1369 -90.6302 356° North  Level FlightAware Approximate
08:29AM 16.2478 -90.6376 356° North  Level FlightAware Approximate
08:30AM 16.3588 -90.6450 356° North  Level FlightAware Approximate
08:31AM 16.4525 -90.6525 353° North  Level FlightAware Approximate
08:32AM 16.5628 -90.6673 353° North  Level FlightAware Approximate
08:33AM 16.6731 -90.6820 353° North  Level FlightAware Approximate
08:34AM 16.7839 -90.6908 356° North  Level FlightAware Approximate
08:35AM 16.8948 -90.6990 356° North  Level FlightAware Approximate
08:36AM 17.0058 -90.7073 356° North  Level FlightAware Approximate
08:37AM 17.1167 -90.7156 356° North  Level FlightAware Approximate
08:38AM 17.2276 -90.7238 356° North  Level FlightAware Approximate
08:39AM 17.3385 -90.7321 356° North  Level FlightAware Approximate
08:40AM 17.4494 -90.7404 356° North  Level FlightAware Approximate
08:41AM 17.5604 -90.7487 356° North  Level FlightAware Approximate
08:42AM 17.6713 -90.7570 356° North  Level FlightAware Approximate
08:43AM 17.7822 -90.7653 356° North  Level FlightAware Approximate
08:44AM 17.8930 -90.7745 355° North  Level FlightAware Approximate
08:45AM 18.0039 -90.7838 355° North  Level FlightAware Approximate
08:46AM 18.1111 -90.7928 355° North  Level FlightAware Approximate
08:47AM 18.2184 -90.8018 355° North  Level FlightAware Approximate
08:48AM 18.3256 -90.8108 355° North  Level FlightAware Approximate
08:49AM 18.4329 -90.8199 355° North  Level FlightAware Approximate
08:50AM 18.5401 -90.8289 355° North  Level FlightAware Approximate
08:51AM 18.6474 -90.8380 355° North  Level FlightAware Approximate
08:52AM 18.7546 -90.8470 355° North  Level FlightAware Approximate
08:53AM 18.8618 -90.8561 355° North  Level FlightAware Approximate
08:54AM 18.9691 -90.8652 355° North  Level FlightAware Approximate
08:55AM 19.0763 -90.8743 355° North  Level FlightAware Approximate
08:56AM 19.1836 -90.8835 355° North  Level FlightAware Approximate
08:57AM 19.2908 -90.8926 355° North  Level FlightAware Approximate
08:58AM 19.3980 -90.9017 355° North  Level FlightAware Approximate
08:59AM 19.5053 -90.9109 355° North  Level FlightAware Approximate
09:00AM 19.6125 -90.9201 355° North  Level FlightAware Approximate
09:01AM 19.7198 -90.9292 355° North  Level FlightAware Approximate
09:02AM 19.8270 -90.9384 355° North  Level FlightAware Approximate
09:03AM 19.9342 -90.9476 355° North  Level FlightAware Approximate
09:04AM 20.0415 -90.9569 355° North  Level FlightAware Approximate
09:05AM 20.1487 -90.9661 355° North  Level FlightAware Approximate
09:06AM 20.2560 -90.9753 355° North  Level FlightAware Approximate
09:07AM 20.3632 -90.9846 355° North  Level FlightAware Approximate
09:08AM 20.4704 -90.9939 355° North  Level FlightAware Approximate
09:09AM 20.5777 -91.0031 355° North  Level FlightAware Approximate
09:10AM 20.6849 -91.0124 355° North  Level FlightAware Approximate
09:11AM 20.7922 -91.0218 355° North  Level FlightAware Approximate
09:12AM 20.8994 -91.0311 355° North  Level FlightAware Approximate
09:13AM 21.0066 -91.0404 355° North  Level FlightAware Approximate
09:14AM 21.1157 -91.0749 344° North  Level FlightAware Approximate
09:15AM 21.2247 -91.1094 344° North  Level FlightAware Approximate
09:16AM 21.3342 -91.1479 338° Northwest  Level FlightAware Approximate
09:17AM 21.4398 -91.1931 338° Northwest  Level FlightAware Approximate
09:18AM 21.5455 -91.2383 338° Northwest  Level FlightAware Approximate
09:19AM 21.6511 -91.2835 338° Northwest  Level FlightAware Approximate
09:20AM 21.7567 -91.3289 338° Northwest  Level FlightAware Approximate
09:21AM 21.8623 -91.3743 338° Northwest  Level FlightAware Approximate
09:22AM 21.9678 -91.4197 338° Northwest  Level FlightAware Approximate
09:23AM 22.0734 -91.4653 338° Northwest  Level FlightAware Approximate
09:24AM 22.1789 -91.5109 338° Northwest  Level FlightAware Approximate
09:25AM 22.2845 -91.5565 338° Northwest  Level FlightAware Approximate
09:26AM 22.3900 -91.6023 338° Northwest  Level FlightAware Approximate
09:27AM 22.4955 -91.6481 338° Northwest  Level FlightAware Approximate
09:28AM 22.6010 -91.6940 338° Northwest  Level FlightAware Approximate
09:29AM 22.7065 -91.7399 338° Northwest  Level FlightAware Approximate
09:30AM 22.8120 -91.7859 338° Northwest  Level FlightAware Approximate
09:31AM 22.9174 -91.8320 338° Northwest  Level FlightAware Approximate
09:32AM 23.0229 -91.8782 338° Northwest  Level FlightAware Approximate
09:33AM 23.1283 -91.9244 338° Northwest  Level FlightAware Approximate
09:34AM 23.2337 -91.9707 338° Northwest  Level FlightAware Approximate
09:35AM 23.3392 -92.0171 338° Northwest  Level FlightAware Approximate
09:36AM 23.4445 -92.0636 338° Northwest  Level FlightAware Approximate
09:37AM 23.5499 -92.1101 338° Northwest  Level FlightAware Approximate
09:38AM 23.6553 -92.1567 338° Northwest  Level FlightAware Approximate
09:39AM 23.7607 -92.2034 338° Northwest  Level FlightAware Approximate
09:40AM 23.8660 -92.2502 338° Northwest  Level FlightAware Approximate
09:41AM 23.9713 -92.2970 338° Northwest  Level FlightAware Approximate
09:42AM 24.0766 -92.3439 338° Northwest  Level FlightAware Approximate
09:43AM 24.1819 -92.3909 338° Northwest  Level FlightAware Approximate
09:44AM 24.2872 -92.4379 338° Northwest  Level FlightAware Approximate
09:45AM 24.3925 -92.4851 338° Northwest  Level FlightAware Approximate
09:46AM 24.4977 -92.5323 338° Northwest  Level FlightAware Approximate
09:47AM 24.5979 -92.5913 332° Northwest  Level FlightAware Approximate
09:48AM 24.6980 -92.6506 332° Northwest  Level FlightAware Approximate
09:49AM 24.7981 -92.7101 332° Northwest  Level FlightAware Approximate
09:50AM 24.8981 -92.7696 332° Northwest  Level FlightAware Approximate
09:51AM 24.9981 -92.8293 332° Northwest  Level FlightAware Approximate
09:52AM 25.0981 -92.8890 332° Northwest  Level FlightAware Approximate
09:53AM 25.1980 -92.9488 332° Northwest  Level FlightAware Approximate
09:54AM 25.2996 -93.0053 333° Northwest  Level FlightAware Approximate
09:55AM 25.4001 -93.0640 331° Northwest  Level FlightAware Approximate
09:56AM 25.4996 -93.1251 331° Northwest  Level FlightAware Approximate
09:57AM 25.5990 -93.1862 331° Northwest  Level FlightAware Approximate
09:58AM 25.6984 -93.2475 331° Northwest  Level FlightAware Approximate
09:59AM 25.7977 -93.3088 331° Northwest  Level FlightAware Approximate
10:00AM 25.8971 -93.3702 331° Northwest  Level FlightAware Approximate
10:00AM 26.2336 -93.5636 331° Northwest 423 487 38,000  Level Houston Center
10:01AM 25.9964 -93.4318 331° Northwest  Level FlightAware Approximate
10:01AM 26.3303 -93.6286 329° Northwest 413 475 38,000  Level Houston Center
10:02AM 26.0957 -93.4934 331° Northwest  Level FlightAware Approximate
10:02AM 26.4272 -93.6847 333° Northwest 404 465 38,000  Level Houston Center
10:03AM 26.1949 -93.5552 331° Northwest  Level FlightAware Approximate
10:03AM 26.5367 -93.7089 349° North 410 472 37,900  Level Houston Center
10:04AM 26.2941 -93.6171 331° Northwest  Level FlightAware Approximate
10:04AM 26.6522 -93.7181 356° North 412 474 38,000  Level Houston Center
10:05AM 26.3925 -93.6785 331° Northwest  Level FlightAware Approximate
10:05AM 26.7669 -93.7158 North 412 474 38,000  Level Houston Center
10:06AM 26.9056 -93.7261 356° North 413 475 38,000  Level Houston Center
10:07AM 27.0211 -93.7342 356° North 413 475 38,000  Level Houston Center
10:08AM 27.1364 -93.7417 357° North 413 475 38,000  Level Houston Center
10:09AM 27.2519 -93.7489 357° North 413 475 38,000 -49 Level Houston Center
10:10AM 27.3678 -93.7558 357° North 414 476 37,900  Descending Houston Center
10:11AM 27.4833 -93.7614 358° North 414 476 38,000 49 Climbing Houston Center
10:12AM 27.5972 -93.7706 356° North 414 476 38,000  Level Houston Center
10:13AM 27.7128 -93.7767 357° North 413 475 38,000  Level Houston Center
10:14AM 27.8267 -93.7850 356° North 413 475 38,000  Level Houston Center
10:15AM 27.9639 -93.7931 357° North 413 475 38,000  Level Houston Center
10:16AM 28.0792 -93.7997 357° North 413 475 38,000  Level Houston Center
10:17AM 28.1944 -93.8086 356° North 413 475 38,000  Level Houston Center
10:18AM 28.3111 -93.8142 358° North 414 476 38,000 -435 Level Houston Center
10:19AM 28.4281 -93.8225 356° North 416 479 37,100 -878 Descending Houston Center
10:20AM 28.5450 -93.8294 357° North 416 479 36,200 -927 Descending Houston Center
10:21AM 28.6622 -93.8378 356° North 418 481 35,200 -1,016 Descending Houston Center
10:22AM 28.8033 -93.8456 357° North 418 481 34,100 -1,016 Descending Houston Center
10:23AM 28.9197 -93.8544 356° North 419 482 33,100 -1,610 Descending Houston Center
10:24AM 29.0381 -93.8608 357° North 421 484 30,800 -2,244 Descending Houston Center
10:25AM 29.1536 -93.8694 356° North 420 483 28,500 -2,177 Descending Houston Center
10:26AM 29.2653 -93.8753 357° North 407 468 26,300 -2,274 Descending Houston Center
10:27AM 29.3892 -93.8850 356° North 393 452 23,800 -2,081 Descending Houston Center
10:28AM 29.4786 -93.8964 354° North 382 440 22,000 -2,098 Descending Houston Center
10:29AM 29.5222 -94.0083 294° West 340 391 19,500 -2,338 Descending Houston Center
10:30AM 29.5222 -94.0367 270° West 319 367 19,000 -1,775 Descending Houston Center
10:31AM 29.5250 -94.1275 272° West 314 361 17,400 -1,889 Descending Houston Center
10:32AM 29.5300 -94.2103 274° West 317 365 15,600 -2,149 Descending Houston Center
10:32AM 29.5278 -94.2378 265° West 310 357 15,000 -2,000 Descending Houston Center
10:33AM 29.5322 -94.3239 273° West 302 348 13,300 -1,321 Descending Houston Center
10:34AM 29.5614 -94.3947 295° West 309 356 12,600 -896 Descending Houston Center
10:34AM 29.5775 -94.4189 307° West 306 352 12,300 -968 Descending Houston Center
10:35AM 29.6144 -94.4703 310° West 304 350 11,600 -982 Descending Houston Center
10:35AM 29.6264 -94.4894 306° West 307 353 11,400 -1,082 Descending Houston Center
10:36AM 29.6733 -94.5606 307° West 304 350 10,500 -857 Descending Houston Center
10:36AM 29.6678 -94.5464 114° Southeast 304 350 10,600 -484 Climbing Houston Center
10:37AM 29.7203 -94.6228 308° West 304 350 10,000 -554 Descending Houston Center
10:37AM 29.7314 -94.6397 307° West 302 348 10,000 -545 Level Houston Center
10:38AM 29.7808 -94.7153 307° West 262 302 9,400 -1,131 Descending Houston Center
10:39AM 29.8294 -94.7839 309° West 276 318 7,700 -1,500 Descending Houston Center
10:40AM 29.8733 -94.8439 310° West 272 313 6,400 -1,377 Descending Houston Center
10:40AM 29.8778 -94.8500 310° West 266 306 6,300 -1,672 Descending Houston Center
10:41AM 29.9172 -94.9089 308° West 269 310 4,700 -1,770 Descending Houston Center
10:41AM 29.9222 -94.9192 299° West 272 313 4,500 -677 Descending Houston Center
10:42AM 29.9664 -94.9861 307° West 254 292 4,000 -246 Descending Houston Center
10:43AM 29.9775 -95.0594 280° West 215 247 4,000  Level Houston Center
10:43AM 29.9794 -95.0611 323° Northwest 229 264 4,000 -689 Level Houston Center
10:44AM 29.9769 -95.1222 267° West 190 219 3,300 -677 Descending Houston Center
10:44AM 29.9778 -95.1247 291° West 209 241 3,300 -667 Level Houston Center
10:45AM 29.9783 -95.1783 271° West 193 222 2,600 -1,108 Descending Houston Center
10:45AM 29.9767 -95.1875 258° West 184 212 2,100 -1,241 Descending Houston Center
10:46AM 29.9767 -95.2308 270° West 133 153 1,400 -758 Descending Houston Center
10:47AM 29.9817 -95.2592 282° West 157 181 900 -689 Descending Houston Center
10:47AM 29.9764 -95.2742 248° West 136 157 700 -97 Descending Houston Center
10:48AM 29.9842 -95.3017 288° West 138 159 800 143 Climbing Houston Center

Login

Don't have an account? Register now (free) for customized features, flight alerts, and more!